Time;durP1;ratioP1;P1;durP2;ratioP2;P2;SDS_P1;SDS_P2;PMS_P1;PMS_P2;Temp;Humidity;BMP_temperature;BMP_pressure;BME280_temperature;BME280_humidity;BME280_pressure;Samples;Min_cycle;Max_cycle;Signal;HPM_P1;HPM_P2
2021/03/25 00:00:11;;;;;;;72.53;20.50;;;;;;;-145.18;100.00;60484.78;4990826;28;20331;-77
2021/03/25 00:02:36;;;;;;;66.63;20.33;;;;;;;-145.18;100.00;60484.78;4992858;28;20675;-77
2021/03/25 00:05:06;;;;;;;75.67;19.67;;;;;;;-145.18;100.00;60484.78;4990977;28;20276;-77
2021/03/25 00:07:31;;;;;;;83.37;22.90;;;;;;;-145.18;100.00;60484.78;4989953;28;20452;-77
2021/03/25 00:09:57;;;;;;;79.40;21.50;;;;;;;-145.18;100.00;60484.78;4989743;28;20325;-77
2021/03/25 00:12:22;;;;;;;82.90;22.17;;;;;;;-145.18;100.00;60484.78;4971537;28;20072;-77
2021/03/25 00:14:48;;;;;;;77.63;21.60;;;;;;;-145.18;100.00;60484.78;4989277;28;20034;-77
2021/03/25 00:17:14;;;;;;;93.23;23.57;;;;;;;-145.18;100.00;60484.78;4989791;28;20026;-77
2021/03/25 00:19:39;;;;;;;86.17;21.57;;;;;;;-145.18;100.00;60484.78;4989714;28;20057;-78
2021/03/25 00:22:05;;;;;;;78.33;21.67;;;;;;;-145.18;100.00;60484.78;4988892;28;20308;-77
2021/03/25 00:24:30;;;;;;;96.27;23.43;;;;;;;-145.18;100.00;60484.78;4990410;28;20077;-78
2021/03/25 00:26:56;;;;;;;96.73;22.53;;;;;;;-145.18;100.00;60484.78;4988342;28;20065;-77
2021/03/25 00:29:21;;;;;;;92.87;23.70;;;;;;;-145.18;100.00;60484.78;4990862;28;20033;-77
2021/03/25 00:31:47;;;;;;;105.10;23.73;;;;;;;-145.18;100.00;60484.78;4992585;28;20087;-77
2021/03/25 00:34:13;;;;;;;100.90;24.30;;;;;;;-145.18;100.00;60484.78;4994983;28;20046;-77
2021/03/25 00:36:39;;;;;;;98.77;24.33;;;;;;;-145.18;100.00;60484.78;4991150;28;20538;-77
2021/03/25 00:39:09;;;;;;;100.83;24.77;;;;;;;-145.18;100.00;60484.78;4995371;28;20365;-77
2021/03/25 00:41:35;;;;;;;108.00;24.43;;;;;;;-145.18;100.00;60484.78;4992310;28;20117;-77
2021/03/25 00:44:04;;;;;;;102.13;24.93;;;;;;;-145.18;100.00;60484.78;4991993;28;20443;-77
2021/03/25 00:46:29;;;;;;;114.30;27.13;;;;;;;-145.18;100.00;60484.78;4993545;28;20109;-77
2021/03/25 00:48:55;;;;;;;103.37;24.27;;;;;;;-145.18;100.00;60484.78;4992504;28;20865;-77
2021/03/25 00:51:20;;;;;;;103.07;25.97;;;;;;;-145.18;100.00;60484.78;4992641;28;20064;-77
2021/03/25 00:53:46;;;;;;;82.57;22.33;;;;;;;-145.18;100.00;60484.78;4993388;28;20384;-77
2021/03/25 00:56:11;;;;;;;92.73;24.77;;;;;;;-145.18;100.00;60484.78;4993755;28;20057;-77
2021/03/25 00:58:36;;;;;;;89.50;22.83;;;;;;;-145.18;100.00;60484.78;4992480;28;20081;-77
2021/03/25 01:01:05;;;;;;;75.47;21.27;;;;;;;-145.18;100.00;60484.78;4995716;28;20038;-77
2021/03/25 01:03:30;;;;;;;76.43;21.03;;;;;;;-145.18;100.00;60484.78;4992043;28;20075;-77
2021/03/25 01:05:56;;;;;;;75.73;21.33;;;;;;;-145.18;100.00;60484.78;4993715;28;20376;-77
2021/03/25 01:08:22;;;;;;;75.37;20.70;;;;;;;-145.18;100.00;60484.78;4991932;28;20105;-77
2021/03/25 01:10:50;;;;;;;68.17;20.87;;;;;;;-145.18;100.00;60484.78;4991621;28;20037;-77
2021/03/25 01:13:44;;;;;;;73.93;20.00;;;;;;;-145.18;100.00;60484.78;4992339;28;20265;-75
2021/03/25 01:16:18;;;;;;;76.53;21.97;;;;;;;-145.18;100.00;60484.78;4987378;28;20297;-75
2021/03/25 01:18:44;;;;;;;56.00;18.77;;;;;;;-145.18;100.00;60484.78;4993305;28;20802;-75
2021/03/25 01:21:09;;;;;;;72.87;20.40;;;;;;;-145.18;100.00;60484.78;4995219;28;20285;-75
2021/03/25 01:23:35;;;;;;;68.00;20.33;;;;;;;-145.18;100.00;60484.78;4991882;28;20030;-76
2021/03/25 01:26:01;;;;;;;80.40;22.37;;;;;;;-145.18;100.00;60484.78;4991699;28;20038;-76
2021/03/25 01:28:26;;;;;;;71.97;21.20;;;;;;;-145.18;100.00;60484.78;4990876;28;20047;-76
2021/03/25 01:30:52;;;;;;;68.30;20.30;;;;;;;-145.18;100.00;60484.78;4992187;28;20120;-77
2021/03/25 01:33:21;;;;;;;65.90;19.97;;;;;;;-145.18;100.00;60484.78;4992782;28;20041;-76
2021/03/25 01:35:47;;;;;;;59.90;19.63;;;;;;;-145.18;100.00;60484.78;4991619;28;20029;-76
2021/03/25 01:38:18;;;;;;;70.50;20.03;;;;;;;-145.18;100.00;60484.78;4993383;28;20278;-76
2021/03/25 01:40:49;;;;;;;59.10;18.37;;;;;;;-145.18;100.00;60484.78;4990454;28;20045;-76
2021/03/25 01:43:40;;;;;;;63.90;20.60;;;;;;;-145.18;100.00;60484.78;4989815;28;20285;-76
2021/03/25 01:46:21;;;;;;;58.97;17.83;;;;;;;-145.18;100.00;60484.78;4991156;28;20289;-76
2021/03/25 01:48:54;;;;;;;48.00;16.87;;;;;;;-145.18;100.00;60484.78;4990784;28;20797;-76
2021/03/25 01:51:40;;;;;;;48.20;16.87;;;;;;;-145.18;100.00;60484.78;4991171;28;20834;-76
2021/03/25 01:54:21;;;;;;;52.10;15.13;;;;;;;-145.18;100.00;60484.78;4987892;28;20607;-76
2021/03/25 01:57:10;;;;;;;45.23;15.60;;;;;;;-145.18;100.00;60484.78;4994380;28;20634;-76
2021/03/25 01:59:51;;;;;;;41.23;15.03;;;;;;;-145.18;100.00;60484.78;4990493;28;20777;-76
2021/03/25 02:02:43;;;;;;;47.10;14.77;;;;;;;-145.18;100.00;60484.78;4993130;28;20277;-76
2021/03/25 02:05:14;;;;;;;47.47;14.37;;;;;;;-145.18;100.00;60484.78;4989582;28;20277;-76
2021/03/25 02:07:49;;;;;;;47.40;15.03;;;;;;;-145.18;100.00;60484.78;4994003;28;20841;-76
2021/03/25 02:10:56;;;;;;;47.70;14.23;;;;;;;-145.18;100.00;60484.78;4991220;28;20301;-76
2021/03/25 02:13:30;;;;;;;59.73;17.00;;;;;;;-145.18;100.00;60484.78;4973942;28;20292;-76
2021/03/25 02:16:04;;;;;;;69.00;17.97;;;;;;;-145.18;100.00;60484.78;4990845;28;20281;-76
2021/03/25 02:18:52;;;;;;;50.30;17.93;;;;;;;-145.18;100.00;60484.78;4996451;28;20634;-76
2021/03/25 02:21:36;;;;;;;68.57;18.90;;;;;;;-145.18;100.00;60484.78;5015479;28;20288;-76
2021/03/25 02:24:31;;;;;;;60.33;18.17;;;;;;;-145.18;100.00;60484.78;5011551;28;20268;-76
2021/03/25 02:27:21;;;;;;;54.37;16.47;;;;;;;-145.18;100.00;60484.78;5009782;28;20776;-76
2021/03/25 02:30:03;;;;;;;57.83;16.93;;;;;;;-145.18;100.00;60484.78;5010922;28;20384;-76
2021/03/25 02:32:57;;;;;;;64.45;16.85;;;;;;;-145.18;100.00;60484.78;5010195;28;20418;-76
2021/03/25 02:35:30;;;;;;;63.83;19.40;;;;;;;-145.18;100.00;60484.78;5005960;28;20405;-76
2021/03/25 02:38:04;;;;;;;85.10;19.83;;;;;;;-145.18;100.00;60484.78;5013613;28;20279;-76
2021/03/25 02:40:52;;;;;;;70.63;19.57;;;;;;;-145.18;100.00;60484.78;5010706;28;20337;-76
2021/03/25 02:43:34;;;;;;;61.10;20.13;;;;;;;-145.18;100.00;60484.78;5007918;28;20598;-76
2021/03/25 02:46:13;;;;;;;63.92;19.38;;;;;;;-145.18;100.00;60484.78;5010687;28;20292;-76
2021/03/25 02:48:43;;;;;;;63.73;19.77;;;;;;;-145.18;100.00;60484.78;5008665;28;20104;-76
2021/03/25 02:51:13;;;;;;;68.20;21.67;;;;;;;-145.18;100.00;60484.78;5010508;28;20287;-76
2021/03/25 02:53:44;;;;;;;59.40;19.53;;;;;;;-145.18;100.00;60484.78;5009654;28;20307;-76
2021/03/25 02:56:15;;;;;;;59.13;18.95;;;;;;;-145.18;100.00;60484.78;5009014;28;20292;-76
2021/03/25 02:58:44;;;;;;;51.37;16.77;;;;;;;-145.18;100.00;60484.78;5012476;28;20030;-76
2021/03/25 03:01:11;;;;;;;51.00;17.17;;;;;;;-145.18;100.00;60484.78;5011132;28;20307;-76
2021/03/25 03:03:56;;;;;;;52.50;15.80;;;;;;;-145.18;100.00;60484.78;5009761;28;20287;-76
2021/03/25 03:06:31;;;;;;;52.30;16.07;;;;;;;-145.18;100.00;60484.78;5009236;28;20284;-76
2021/03/25 03:08:57;;;;;;;60.37;17.97;;;;;;;-145.18;100.00;60484.78;5011139;28;20392;-76
2021/03/25 03:11:29;;;;;;;50.10;17.00;;;;;;;-145.18;100.00;60484.78;5011402;28;20363;-76
2021/03/25 03:14:00;;;;;;;55.90;17.55;;;;;;;-145.18;100.00;60484.78;5010227;28;20053;-76
2021/03/25 03:16:32;;;;;;;77.97;20.40;;;;;;;-145.18;100.00;60484.78;5010484;28;20025;-76
2021/03/25 03:19:06;;;;;;;79.13;20.50;;;;;;;-145.18;100.00;60484.78;5001304;28;20277;-76
2021/03/25 03:21:43;;;;;;;75.70;20.83;;;;;;;-145.18;100.00;60484.78;4990159;28;21047;-76
2021/03/25 03:24:10;;;;;;;77.73;21.47;;;;;;;-145.18;100.00;60484.78;4987440;28;20372;-76
2021/03/25 03:26:43;;;;;;;75.47;19.63;;;;;;;-145.18;100.00;60484.78;4990185;28;20281;-76
2021/03/25 03:29:09;;;;;;;69.93;19.20;;;;;;;-145.18;100.00;60484.78;4990353;28;20305;-76
2021/03/25 03:31:50;;;;;;;89.33;22.77;;;;;;;-145.18;100.00;60484.78;4989826;28;20281;-76
2021/03/25 03:34:24;;;;;;;108.40;24.63;;;;;;;-145.18;100.00;60484.78;4992570;28;20425;-76
2021/03/25 03:36:53;;;;;;;112.60;23.40;;;;;;;-145.18;100.00;60484.78;4989964;28;20280;-76
2021/03/25 03:39:22;;;;;;;109.40;22.77;;;;;;;-145.18;100.00;60484.78;4992235;28;20277;-76
2021/03/25 03:41:56;;;;;;;106.57;24.87;;;;;;;-145.18;100.00;60484.78;4990600;28;20686;-76
2021/03/25 03:44:30;;;;;;;110.20;24.83;;;;;;;-145.18;100.00;60484.78;4988842;28;20401;-76
2021/03/25 03:46:58;;;;;;;89.60;23.77;;;;;;;-145.18;100.00;60484.78;4990771;28;20293;-76
2021/03/25 03:49:34;;;;;;;97.10;24.47;;;;;;;-145.18;100.00;60484.78;4989516;28;20318;-76
2021/03/25 03:52:08;;;;;;;92.97;23.73;;;;;;;-145.18;100.00;60484.78;4992029;28;20289;-76
2021/03/25 03:54:36;;;;;;;91.40;21.37;;;;;;;-145.18;100.00;60484.78;4989066;28;20304;-76
2021/03/25 03:57:29;;;;;;;74.60;18.80;;;;;;;-145.18;100.00;60484.78;4988857;28;20327;-76
2021/03/25 04:00:10;;;;;;;62.67;18.67;;;;;;;-145.18;100.00;60484.78;4986913;28;20289;-76
2021/03/25 04:02:40;;;;;;;63.10;17.80;;;;;;;-145.18;100.00;60484.78;4989242;28;20317;-76
2021/03/25 04:05:29;;;;;;;60.90;17.13;;;;;;;-145.18;100.00;60484.78;4987845;28;20285;-76
2021/03/25 04:08:22;;;;;;;65.20;19.70;;;;;;;-145.18;100.00;60484.78;4995138;28;20281;-76
2021/03/25 04:10:57;;;;;;;72.13;19.33;;;;;;;-145.18;100.00;60484.78;4998633;28;20637;-76
2021/03/25 04:13:31;;;;;;;82.70;20.20;;;;;;;-145.18;100.00;60484.78;4992691;28;20757;-76
2021/03/25 04:15:57;;;;;;;91.73;20.87;;;;;;;-145.18;100.00;60484.78;4991956;28;20348;-76
2021/03/25 04:18:41;;;;;;;84.93;20.07;;;;;;;-145.18;100.00;60484.78;4994130;28;20834;-76
2021/03/25 04:21:22;;;;;;;82.93;22.90;;;;;;;-145.18;100.00;60484.78;4986065;28;20412;-76
2021/03/25 04:23:50;;;;;;;95.57;22.73;;;;;;;-145.18;100.00;60484.78;4994143;28;20277;-76
2021/03/25 04:26:36;;;;;;;109.97;24.10;;;;;;;-145.18;100.00;60484.78;4985049;28;20646;-75
2021/03/25 04:29:09;;;;;;;105.20;23.43;;;;;;;-145.18;100.00;60484.78;4986571;28;20285;-76
2021/03/25 04:31:35;;;;;;;120.97;24.77;;;;;;;-145.18;100.00;60484.78;4975262;28;20305;-76
2021/03/25 04:34:03;;;;;;;102.77;23.53;;;;;;;-145.18;100.00;60484.78;4993034;28;20330;-76
2021/03/25 04:36:32;;;;;;;102.43;23.70;;;;;;;-145.18;100.00;60484.78;4993695;28;20558;-76
2021/03/25 04:39:00;;;;;;;101.40;23.97;;;;;;;-145.18;100.00;60484.78;4992137;28;20328;-76
2021/03/25 04:41:26;;;;;;;96.53;23.50;;;;;;;-145.18;100.00;60484.78;4994300;28;20517;-76
2021/03/25 04:43:59;;;;;;;109.17;23.43;;;;;;;-145.18;100.00;60484.78;4994461;28;20273;-76
2021/03/25 04:46:40;;;;;;;116.27;26.70;;;;;;;-145.18;100.00;60484.78;4993213;28;20459;-76
2021/03/25 04:49:12;;;;;;;104.77;23.83;;;;;;;-145.18;100.00;60484.78;4991578;28;20367;-76
2021/03/25 04:51:38;;;;;;;96.60;25.10;;;;;;;-145.18;100.00;60484.78;4994462;28;20285;-76
2021/03/25 04:54:34;;;;;;;93.80;24.53;;;;;;;-145.18;100.00;60484.78;4988397;28;20037;-75
2021/03/25 04:57:09;;;;;;;83.60;23.27;;;;;;;-145.18;100.00;60484.78;4990170;28;20061;-75
2021/03/25 04:59:37;;;;;;;84.70;24.77;;;;;;;-145.18;100.00;60484.78;4989134;28;20285;-76
2021/03/25 05:02:05;;;;;;;88.87;22.50;;;;;;;-145.18;100.00;60484.78;4992504;28;20765;-76
2021/03/25 05:04:35;;;;;;;74.10;21.23;;;;;;;-145.18;100.00;60484.78;4993503;28;20281;-76
2021/03/25 05:07:01;;;;;;;72.07;21.70;;;;;;;-145.18;100.00;60484.78;4991278;28;20293;-76
2021/03/25 05:09:28;;;;;;;77.27;21.53;;;;;;;-145.18;100.00;60484.78;4990566;28;20285;-76
2021/03/25 05:11:55;;;;;;;77.13;20.60;;;;;;;-145.18;100.00;60484.78;4990790;28;20409;-76
2021/03/25 05:14:24;;;;;;;67.57;19.27;;;;;;;-145.18;100.00;60484.78;4993572;28;20282;-76
2021/03/25 05:17:12;;;;;;;58.93;17.87;;;;;;;-145.18;100.00;60484.78;4994867;28;20285;-76
2021/03/25 05:19:43;;;;;;;61.33;18.97;;;;;;;-145.18;100.00;60484.78;4988925;28;20292;-76
2021/03/25 05:22:20;;;;;;;73.83;19.10;;;;;;;-145.18;100.00;60484.78;4991012;28;20304;-76
2021/03/25 05:24:54;;;;;;;63.10;19.80;;;;;;;-145.18;100.00;60484.78;4991247;28;20289;-76
2021/03/25 05:27:31;;;;;;;68.53;20.40;;;;;;;-145.18;100.00;60484.78;4992185;28;20299;-76
2021/03/25 05:29:59;;;;;;;75.23;22.77;;;;;;;-145.18;100.00;60484.78;4990368;28;20339;-76
2021/03/25 05:32:29;;;;;;;71.70;20.80;;;;;;;-145.18;100.00;60484.78;4992026;28;20278;-76
2021/03/25 05:34:59;;;;;;;59.53;19.23;;;;;;;-145.18;100.00;60484.78;4995176;28;20371;-76
2021/03/25 05:37:25;;;;;;;63.07;18.70;;;;;;;-145.18;100.00;60484.78;4991306;28;20281;-76
2021/03/25 05:39:51;;;;;;;51.37;17.50;;;;;;;-145.18;100.00;60484.78;4991820;28;20288;-76
2021/03/25 05:42:42;;;;;;;54.13;18.17;;;;;;;-145.18;100.00;60484.78;4992137;28;20281;-76
2021/03/25 05:45:28;;;;;;;59.60;18.47;;;;;;;-145.18;100.00;60484.78;4991677;28;20696;-75
2021/03/25 05:48:14;;;;;;;56.60;17.93;;;;;;;-145.18;100.00;60484.78;4994134;28;20286;-75
2021/03/25 05:50:49;;;;;;;54.80;18.17;;;;;;;-145.18;100.00;60484.78;4990768;28;20615;-75
2021/03/25 05:53:41;;;;;;;61.97;18.57;;;;;;;-145.18;100.00;60484.78;4991948;28;21168;-75
2021/03/25 05:56:22;;;;;;;62.65;20.15;;;;;;;-145.18;100.00;60484.78;4990335;28;20337;-76
2021/03/25 05:58:55;;;;;;;57.60;19.30;;;;;;;-145.18;100.00;60484.78;4993471;28;20034;-76
2021/03/25 06:01:30;;;;;;;60.20;18.50;;;;;;;-145.18;100.00;60484.78;4993956;28;20301;-75
2021/03/25 06:04:05;;;;;;;52.90;17.80;;;;;;;-145.18;100.00;60484.78;4990765;28;20351;-75
2021/03/25 06:06:58;;;;;;;56.03;18.83;;;;;;;-145.18;100.00;60484.78;4988969;28;20299;-75
2021/03/25 06:09:26;;;;;;;58.00;19.83;;;;;;;-145.18;100.00;60484.78;4991353;28;20294;-76
2021/03/25 06:12:09;;;;;;;60.73;19.00;;;;;;;-145.18;100.00;60484.78;4990610;28;20289;-76
2021/03/25 06:14:37;;;;;;;55.57;18.13;;;;;;;-145.18;100.00;60484.78;4991701;28;20305;-76
2021/03/25 06:17:19;;;;;;;53.87;19.13;;;;;;;-145.18;100.00;60484.78;4996231;28;20493;-76
2021/03/25 06:19:47;;;;;;;61.17;20.17;;;;;;;-145.18;100.00;60484.78;4990609;28;20297;-76
2021/03/25 06:22:39;;;;;;;52.43;17.33;;;;;;;-145.18;100.00;60484.78;4988841;28;20045;-76
2021/03/25 06:25:26;;;;;;;57.43;19.67;;;;;;;-145.18;100.00;60484.78;4990716;28;20034;-76
2021/03/25 06:28:09;;;;;;;49.73;17.20;;;;;;;-145.18;100.00;60484.78;4989966;28;20030;-76
2021/03/25 06:30:57;;;;;;;48.60;17.33;;;;;;;-145.18;100.00;60484.78;4990861;28;20038;-76
2021/03/25 06:33:30;;;;;;;48.70;17.23;;;;;;;-145.18;100.00;60484.78;4990160;28;20181;-76
2021/03/25 06:36:05;;;;;;;48.77;17.03;;;;;;;-145.18;100.00;60484.78;4989069;28;20424;-76
2021/03/25 06:38:40;;;;;;;43.27;15.83;;;;;;;-145.18;100.00;60484.78;4988193;28;20029;-76
2021/03/25 06:41:19;;;;;;;46.57;16.03;;;;;;;-145.18;100.00;60484.78;4989730;28;20026;-76
2021/03/25 06:44:01;;;;;;;46.60;17.27;;;;;;;-145.18;100.00;60484.78;4989524;28;20022;-76
2021/03/25 06:46:53;;;;;;;45.92;15.73;;;;;;;-145.18;100.00;60484.78;4990084;28;20425;-76
2021/03/25 06:49:32;;;;;;;41.83;15.33;;;;;;;-145.18;100.00;60484.78;4987338;28;20039;-76
2021/03/25 06:52:28;;;;;;;44.77;15.23;;;;;;;-145.18;100.00;60484.78;4989908;28;21019;-76
2021/03/25 06:55:05;;;;;;;44.43;16.00;;;;;;;-145.18;100.00;60484.78;4988823;28;20125;-76
2021/03/25 06:57:41;;;;;;;42.63;15.90;;;;;;;-145.18;100.00;60484.78;4994198;28;20026;-76
2021/03/25 07:00:09;;;;;;;44.70;16.40;;;;;;;-145.18;100.00;60484.78;4989671;28;20546;-76
2021/03/25 07:02:36;;;;;;;43.77;16.33;;;;;;;-145.18;100.00;60484.78;4992253;28;20070;-77
2021/03/25 07:05:06;;;;;;;39.93;15.57;;;;;;;-145.18;100.00;60484.78;4989781;28;20061;-76
2021/03/25 07:07:37;;;;;;;43.90;15.30;;;;;;;-145.18;100.00;60484.78;4988683;28;20030;-77
2021/03/25 07:10:04;;;;;;;43.97;16.07;;;;;;;-145.18;100.00;60484.78;4988766;28;20042;-76
2021/03/25 07:12:35;;;;;;;45.03;16.80;;;;;;;-145.18;100.00;60484.78;4988776;28;20022;-76
2021/03/25 07:15:02;;;;;;;43.50;15.97;;;;;;;-145.18;100.00;60484.78;4990545;28;20097;-76
2021/03/25 07:17:35;;;;;;;39.53;13.83;;;;;;;-145.18;100.00;60484.78;4991307;28;20523;-77
2021/03/25 07:20:02;;;;;;;;;;;;;;;-145.18;100.00;60484.78;4990879;28;21125;-77
2021/03/25 07:22:31;;;;;;;35.57;13.33;;;;;;;-145.18;100.00;60484.78;4991030;28;19964;-76
2021/03/25 07:25:21;;;;;;;42.97;16.47;;;;;;;-145.18;100.00;60484.78;4990297;28;20058;-76
2021/03/25 07:27:47;;;;;;;40.83;14.33;;;;;;;-145.18;100.00;60484.78;4990908;28;20038;-76
2021/03/25 07:30:22;;;;;;;40.00;15.07;;;;;;;-145.18;100.00;60484.78;4990261;28;20065;-76
2021/03/25 07:32:54;;;;;;;41.70;14.27;;;;;;;-145.18;100.00;60484.78;4990643;28;20112;-76
2021/03/25 07:35:31;;;;;;;38.30;14.52;;;;;;;-145.18;100.00;60484.78;4990050;28;20026;-76
2021/03/25 07:38:01;;;;;;;38.83;14.27;;;;;;;-145.18;100.00;60484.78;4990478;28;20056;-76
2021/03/25 07:40:29;;;;;;;37.67;14.00;;;;;;;-145.18;100.00;60484.78;4987573;28;20034;-76
2021/03/25 07:43:10;;;;;;;43.40;14.37;;;;;;;-145.18;100.00;60484.78;4990356;28;20113;-76
2021/03/25 07:45:36;;;;;;;34.80;13.73;;;;;;;-145.18;100.00;60484.78;4992806;28;20026;-76
2021/03/25 07:48:13;;;;;;;39.87;15.00;;;;;;;-145.18;100.00;60484.78;4990623;28;20029;-77
2021/03/25 07:50:40;;;;;;;38.40;14.00;;;;;;;-145.18;100.00;60484.78;4990421;28;20027;-76
2021/03/25 07:53:27;;;;;;;38.80;13.73;;;;;;;-145.18;100.00;60484.78;4990340;28;20022;-76
2021/03/25 07:56:09;;;;;;;37.33;14.70;;;;;;;-145.18;100.00;60484.78;4986375;28;20041;-76
2021/03/25 07:58:36;;;;;;;38.55;13.60;;;;;;;-145.18;100.00;60484.78;4972922;28;20403;-77
2021/03/25 08:01:16;;;;;;;36.63;12.20;;;;;;;-145.18;100.00;60484.78;4990995;28;20033;-76
2021/03/25 08:03:56;;;;;;;34.63;12.17;;;;;;;-145.18;100.00;60484.78;4990107;28;20314;-77
2021/03/25 08:06:21;;;;;;;38.23;13.07;;;;;;;-145.18;100.00;60484.78;4987414;28;20014;-77
2021/03/25 08:08:59;;;;;;;34.20;12.17;;;;;;;-145.18;100.00;60484.78;4989653;28;20053;-77
2021/03/25 08:11:25;;;;;;;29.67;12.03;;;;;;;-145.18;100.00;60484.78;4990809;28;20018;-78
2021/03/25 08:14:23;;;;;;;34.67;12.50;;;;;;;-145.18;100.00;60484.78;4989782;28;20030;-77
2021/03/25 08:17:02;;;;;;;34.60;12.80;;;;;;;-145.18;100.00;60484.78;4936412;28;20061;-76
2021/03/25 08:19:30;;;;;;;35.10;13.07;;;;;;;-145.18;100.00;60484.78;4989616;28;20054;-76
2021/03/25 08:22:01;;;;;;;34.93;13.13;;;;;;;-145.18;100.00;60484.78;4990476;28;20479;-77
2021/03/25 08:25:04;;;;;;;34.13;12.98;;;;;;;-145.18;100.00;60484.78;4989982;28;20033;-77
2021/03/25 08:27:30;;;;;;;;;;;;;;;-145.18;100.00;60484.78;4990398;28;20022;-77
2021/03/25 08:30:16;;;;;;;32.27;12.33;;;;;;;-145.18;100.00;60484.78;4989758;28;19990;-77
2021/03/25 08:33:18;;;;;;;35.50;12.50;;;;;;;-145.18;100.00;60484.78;4989994;28;20033;-77
2021/03/25 08:36:22;;;;;;;30.30;12.47;;;;;;;-145.18;100.00;60484.78;4991562;28;20608;-77
2021/03/25 08:39:14;;;;;;;29.10;12.43;;;;;;;-145.18;100.00;60484.78;4987781;28;20030;-78
2021/03/25 08:42:03;;;;;;;36.60;12.67;;;;;;;-145.18;100.00;60484.78;4988789;28;20041;-77
2021/03/25 08:44:34;;;;;;;37.17;12.50;;;;;;;-145.18;100.00;60484.78;4988285;28;20050;-77
2021/03/25 08:47:09;;;;;;;33.88;12.82;;;;;;;-145.18;100.00;60484.78;4989416;28;20113;-77
2021/03/25 08:49:48;;;;;;;36.83;12.83;;;;;;;-145.18;100.00;60484.78;4989695;28;20038;-77
2021/03/25 08:52:17;;;;;;;29.63;12.00;;;;;;;-145.18;100.00;60484.78;4991149;28;20018;-76
2021/03/25 08:54:51;;;;;;;34.20;13.23;;;;;;;-145.18;100.00;60484.78;4993450;28;20029;-77
2021/03/25 08:57:22;;;;;;;31.17;11.50;;;;;;;-145.18;100.00;60484.78;4993052;28;20022;-77
2021/03/25 09:00:20;;;;;;;38.23;12.93;;;;;;;-145.18;100.00;60484.78;4993698;28;20535;-77
2021/03/25 09:02:52;;;;;;;33.60;13.57;;;;;;;-145.18;100.00;60484.78;4981337;28;20066;-77
2021/03/25 09:05:39;;;;;;;32.97;11.93;;;;;;;-145.18;100.00;60484.78;4993223;28;20035;-76
2021/03/25 09:08:12;;;;;;;38.00;12.60;;;;;;;-145.18;100.00;60484.78;4993129;28;20022;-77
2021/03/25 09:10:52;;;;;;;32.33;12.33;;;;;;;-145.18;100.00;60484.78;4993188;28;20488;-77
2021/03/25 09:13:32;;;;;;;38.03;12.80;;;;;;;-145.18;100.00;60484.78;4993399;28;20014;-76
2021/03/25 09:16:09;;;;;;;31.60;11.97;;;;;;;-145.18;100.00;60484.78;4990543;28;20026;-77
2021/03/25 09:18:42;;;;;;;28.93;12.10;;;;;;;-145.18;100.00;60484.78;4998008;28;20034;-77
2021/03/25 09:21:18;;;;;;;33.30;11.57;;;;;;;-145.18;100.00;60484.78;5012616;28;20033;-78
2021/03/25 09:24:04;;;;;;;29.53;11.57;;;;;;;-145.18;100.00;60484.78;5008627;28;20382;-77
2021/03/25 09:26:29;;;;;;;31.03;11.17;;;;;;;-145.18;100.00;60484.78;5012133;28;20034;-78
2021/03/25 09:29:02;;;;;;;32.73;11.63;;;;;;;-145.18;100.00;60484.78;5012325;28;20037;-77
2021/03/25 09:31:39;;;;;;;31.13;10.97;;;;;;;-145.18;100.00;60484.78;5012596;28;20048;-78
2021/03/25 09:34:11;;;;;;;31.23;11.23;;;;;;;-145.18;100.00;60484.78;5008637;28;20018;-78
2021/03/25 09:36:36;;;;;;;33.35;12.20;;;;;;;-145.18;100.00;60484.78;5013141;28;20065;-77
2021/03/25 09:39:04;;;;;;;30.67;10.50;;;;;;;-145.18;100.00;60484.78;5011933;28;20061;-77
2021/03/25 09:41:30;;;;;;;27.77;11.47;;;;;;;-145.18;100.00;60484.78;4994821;28;20375;-77
2021/03/25 09:44:11;;;;;;;30.40;11.67;;;;;;;-145.18;100.00;60484.78;5011951;28;20029;-77
2021/03/25 09:46:48;;;;;;;35.43;11.63;;;;;;;-145.18;100.00;60484.78;5009620;28;20040;-77
2021/03/25 09:49:28;;;;;;;28.00;11.70;;;;;;;-145.18;100.00;60484.78;5009035;28;20030;-78
2021/03/25 09:52:06;;;;;;;27.37;10.57;;;;;;;-145.18;100.00;60484.78;5012252;28;20036;-77
2021/03/25 09:54:38;;;;;;;33.47;12.73;;;;;;;-145.18;100.00;60484.78;5011702;28;20029;-77
2021/03/25 09:57:31;;;;;;;33.55;11.68;;;;;;;-145.18;100.00;60484.78;5011502;28;20021;-77
2021/03/25 10:00:18;;;;;;;34.20;11.33;;;;;;;-145.18;100.00;60484.78;5011503;28;20181;-77
2021/03/25 10:02:44;;;;;;;28.43;10.70;;;;;;;-145.18;100.00;60484.78;5012006;28;20029;-77
2021/03/25 10:05:25;;;;;;;28.60;10.00;;;;;;;-145.18;100.00;60484.78;5011042;28;20100;-77
2021/03/25 10:07:56;;;;;;;26.77;10.40;;;;;;;-145.18;100.00;60484.78;4994339;28;20030;-77
2021/03/25 10:10:43;;;;;;;30.33;10.77;;;;;;;-145.18;100.00;60484.78;5011027;28;20036;-77
2021/03/25 10:13:12;;;;;;;26.03;9.97;;;;;;;-145.18;100.00;60484.78;5010350;28;20117;-78
2021/03/25 10:16:15;;;;;;;26.93;10.37;;;;;;;-145.18;100.00;60484.78;5011799;28;20028;-78
2021/03/25 10:18:47;;;;;;;28.17;10.90;;;;;;;-145.18;100.00;60484.78;5004177;28;20034;-77
2021/03/25 10:21:44;;;;;;;25.30;9.75;;;;;;;-145.18;100.00;60484.78;4992103;28;20026;-77
2021/03/25 10:24:42;;;;;;;25.37;9.23;;;;;;;-145.18;100.00;60484.78;4987519;28;20026;-78
2021/03/25 10:27:16;;;;;;;27.63;9.87;;;;;;;-145.18;100.00;60484.78;4983810;28;20053;-77
2021/03/25 10:29:42;;;;;;;30.50;10.97;;;;;;;-145.18;100.00;60484.78;4991278;28;20026;-77
2021/03/25 10:32:19;;;;;;;22.20;8.87;;;;;;;-145.18;100.00;60484.78;4989967;28;20613;-78
2021/03/25 10:34:45;;;;;;;24.27;9.50;;;;;;;-145.18;100.00;60484.78;4992903;28;20077;-77
2021/03/25 10:37:29;;;;;;;25.77;9.97;;;;;;;-145.18;100.00;60484.78;4991589;28;20026;-77
2021/03/25 10:40:18;;;;;;;27.90;10.00;;;;;;;-145.18;100.00;60484.78;4989451;28;20029;-78
2021/03/25 10:42:53;;;;;;;25.00;8.87;;;;;;;-145.18;100.00;60484.78;4991224;28;20045;-78
2021/03/25 10:45:26;;;;;;;23.43;8.90;;;;;;;-145.18;100.00;60484.78;4991194;28;20030;-77
2021/03/25 10:48:01;;;;;;;22.43;8.27;;;;;;;-145.18;100.00;60484.78;4991297;28;20463;-77
2021/03/25 10:50:39;;;;;;;26.60;9.93;;;;;;;-145.18;100.00;60484.78;4990795;28;20054;-77
2021/03/25 10:53:10;;;;;;;22.40;9.37;;;;;;;-145.18;100.00;60484.78;4990834;28;20117;-77
2021/03/25 10:55:42;;;;;;;28.33;10.33;;;;;;;-145.18;100.00;60484.78;4991154;28;20521;-76
2021/03/25 10:58:22;;;;;;;24.33;8.40;;;;;;;-145.18;100.00;60484.78;4991826;28;20129;-77
2021/03/25 11:00:47;;;;;;;20.10;8.43;;;;;;;-145.18;100.00;60484.78;4992891;28;20049;-77
2021/03/25 11:03:26;;;;;;;25.20;9.60;;;;;;;-145.18;100.00;60484.78;4990266;28;20022;-77
2021/03/25 11:05:57;;;;;;;22.17;9.33;;;;;;;-145.18;100.00;60484.78;4991861;28;20037;-77
2021/03/25 11:08:42;;;;;;;25.93;9.23;;;;;;;-145.18;100.00;60484.78;4991187;28;20038;-78
2021/03/25 11:11:21;;;;;;;24.77;8.90;;;;;;;-145.18;100.00;60484.78;4990781;28;20030;-78
2021/03/25 11:14:01;;;;;;;23.67;9.10;;;;;;;-145.18;100.00;60484.78;4986687;28;20037;-77
2021/03/25 11:16:28;;;;;;;21.90;7.97;;;;;;;-145.18;100.00;60484.78;4988229;28;20072;-78
2021/03/25 11:19:01;;;;;;;21.43;7.50;;;;;;;-145.18;100.00;60484.78;4997939;28;20060;-78
2021/03/25 11:21:32;;;;;;;22.70;8.13;;;;;;;-145.18;100.00;60484.78;5010669;28;20044;-77
2021/03/25 11:24:14;;;;;;;24.07;7.93;;;;;;;-145.18;100.00;60484.78;5009718;28;20049;-77
2021/03/25 11:26:41;;;;;;;21.83;7.70;;;;;;;-145.18;100.00;60484.78;5010544;28;20446;-78
2021/03/25 11:29:08;;;;;;;20.40;7.77;;;;;;;-145.18;100.00;60484.78;5010192;28;20079;-77